This is the latest recevied weather packets stored in our database for station/object ED5YAW-10. If no packets are shown the sender has not sent any weather packets the latest 10 day(s).
| Time | Temp. | Humidity | Pressure | Rain* | Wind** | Luminosity | Snow |
|---|---|---|---|---|---|---|---|
| 1777575133 | 19.44° C | 66% | 877 hPa | - | - | - | - |
| 1777574532 | 21.11° C | 49% | 877 hPa | - | - | - | - |
| 1777574528 | 21.11° C | 49% | 877 hPa | - | - | - | - |
| 1777573924 | 21.67° C | 48% | 877 hPa | - | - | - | - |
| 1777573324 | 22.22° C | 46% | 877 hPa | - | - | - | - |
| 1777573319 | 22.22° C | 46% | 877 hPa | - | - | - | - |
| 1777572719 | 22.78° C | 46% | 877 hPa | - | - | - | - |
| 1777572715 | 22.78° C | 46% | 877 hPa | - | - | - | - |
| 1777572115 | 23.33° C | 45% | 877 hPa | - | - | - | - |
| 1777572111 | 23.33° C | 45% | 877 hPa | - | - | - | - |
| 1777571511 | 23.33° C | 44% | 877 hPa | - | - | - | - |
| 1777571507 | 23.33° C | 44% | 877 hPa | - | - | - | - |
| 1777570907 | 23.89° C | 44% | 876 hPa | - | - | - | - |
| 1777570902 | 23.89° C | 44% | 876 hPa | - | - | - | - |
| 1777570310 | 23.89° C | 44% | 876 hPa | - | - | - | - |
| 1777570298 | 23.89° C | 44% | 876 hPa | - | - | - | - |
| 1777569698 | 23.89° C | 47% | 877 hPa | - | - | - | - |
| 1777569694 | 23.89° C | 47% | 877 hPa | - | - | - | - |
| 1777569094 | 23.33° C | 49% | 876 hPa | - | - | - | - |
| 1777569090 | 23.33° C | 49% | 876 hPa | - | - | - | - |
| 1777568485 | 23.33° C | 51% | 877 hPa | - | - | - | - |
| 1777567885 | 22.78° C | 50% | 877 hPa | - | - | - | - |
| 1777567881 | 22.78° C | 50% | 877 hPa | - | - | - | - |
| 1777567281 | 23.33° C | 50% | 877 hPa | - | - | - | - |
| 1777567277 | 23.33° C | 50% | 877 hPa | - | - | - | - |
* Rain since midnight (hover to see other rain measurements)
** Current wind speed in m/s (hover to see current wind gust speed)